Time;durP1;ratioP1;P1;durP2;ratioP2;P2;SDS_P1;SDS_P2;PMS_P1;PMS_P2;Temp;Humidity;BMP_temperature;BMP_pressure;BME280_temperature;BME280_humidity;BME280_pressure;Samples;Min_cycle;Max_cycle;Signal;HPM_P1;HPM_P2
2022/08/01 00:00:41;;;;;;;12.00;10.65;;;18.30;99.90;;;;;;5048898;28;20047;-69
2022/08/01 00:03:06;;;;;;;14.13;11.13;;;18.20;99.90;;;;;;5033430;28;20073;-69
2022/08/01 00:05:32;;;;;;;13.15;10.50;;;18.20;99.90;;;;;;5016366;28;20068;-69
2022/08/01 00:07:58;;;;;;;15.23;11.32;;;18.20;99.90;;;;;;5035493;28;20160;-69
2022/08/01 00:10:24;;;;;;;14.68;11.07;;;18.20;99.90;;;;;;5037913;28;20030;-69
2022/08/01 00:12:50;;;;;;;16.38;11.50;;;18.20;99.90;;;;;;5034763;28;20048;-69
2022/08/01 00:15:16;;;;;;;15.18;11.05;;;18.20;99.90;;;;;;5026762;28;20029;-69
2022/08/01 00:17:43;;;;;;;13.85;10.98;;;18.10;99.90;;;;;;5045513;28;20033;-69
2022/08/01 00:20:11;;;;;;;11.75;10.27;;;18.10;99.90;;;;;;5046379;28;20542;-69
2022/08/01 00:22:37;;;;;;;14.45;10.90;;;18.20;99.90;;;;;;5048751;28;20064;-69
2022/08/01 00:25:05;;;;;;;12.15;9.88;;;18.10;99.90;;;;;;5029183;28;20421;-69
2022/08/01 00:27:31;;;;;;;12.20;10.25;;;18.10;99.90;;;;;;5030327;28;20059;-69
2022/08/01 00:29:57;;;;;;;15.20;11.20;;;18.10;99.90;;;;;;5046312;28;20044;-69
2022/08/01 00:32:23;;;;;;;11.13;9.73;;;18.10;99.90;;;;;;5035576;28;20040;-69
2022/08/01 00:34:48;;;;;;;13.98;10.20;;;18.10;99.90;;;;;;5045538;28;20045;-69
2022/08/01 00:37:14;;;;;;;13.15;10.52;;;18.20;99.90;;;;;;5033787;28;20081;-69
2022/08/01 00:39:40;;;;;;;12.48;10.45;;;18.20;99.90;;;;;;5050342;28;20045;-69
2022/08/01 00:42:07;;;;;;;13.38;9.98;;;18.10;99.90;;;;;;5042688;28;20045;-70
2022/08/01 00:44:33;;;;;;;10.90;9.80;;;18.10;99.90;;;;;;5033574;28;20044;-69
2022/08/01 00:46:59;;;;;;;14.10;9.90;;;18.10;99.90;;;;;;5041781;28;20040;-69
2022/08/01 00:49:24;;;;;;;12.05;10.05;;;18.10;99.90;;;;;;5043414;28;20057;-69
2022/08/01 00:51:50;;;;;;;11.73;10.07;;;18.10;99.90;;;;;;5043694;28;20037;-69
2022/08/01 00:54:16;;;;;;;11.88;9.73;;;18.10;99.90;;;;;;5026580;28;20072;-69
2022/08/01 00:56:41;;;;;;;10.93;9.07;;;18.10;99.90;;;;;;5031152;28;20040;-69
2022/08/01 00:59:08;;;;;;;11.57;10.15;;;18.10;99.90;;;;;;5044539;28;20119;-70
2022/08/01 01:01:34;;;;;;;10.70;9.05;;;18.10;99.90;;;;;;5025721;28;20050;-70
2022/08/01 01:04:00;;;;;;;11.15;8.85;;;18.10;99.90;;;;;;5028988;28;20042;-70
2022/08/01 01:06:39;;;;;;;10.07;8.85;;;18.10;99.90;;;;;;5018699;28;20037;-70
2022/08/01 01:09:05;;;;;;;10.55;9.48;;;18.10;99.90;;;;;;5043073;28;20048;-70
2022/08/01 01:12:00;;;;;;;9.80;8.38;;;18.10;99.90;;;;;;5039258;28;20040;-69
2022/08/01 01:14:35;;;;;;;7.60;6.90;;;18.10;99.90;;;;;;5032297;28;20076;-69
2022/08/01 01:17:04;;;;;;;7.50;6.80;;;18.10;99.90;;;;;;5022764;28;20036;-70
2022/08/01 01:19:33;;;;;;;6.28;5.55;;;18.10;99.90;;;;;;5019915;28;20858;-69
2022/08/01 01:22:37;;;;;;;7.53;6.72;;;18.10;99.90;;;;;;5046054;28;20652;-69
2022/08/01 01:25:18;;;;;;;9.05;6.85;;;18.10;99.90;;;;;;5032336;28;20049;-69
2022/08/01 01:28:12;;;;;;;6.28;5.03;;;18.10;99.90;;;;;;5031004;28;20080;-69
2022/08/01 01:30:41;;;;;;;6.60;5.95;;;18.10;99.90;;;;;;5040456;28;20266;-69
2022/08/01 01:33:10;;;;;;;5.88;5.00;;;18.10;99.90;;;;;;5048263;28;20068;-69
2022/08/01 01:35:38;;;;;;;5.70;4.95;;;18.00;99.90;;;;;;5031033;28;20037;-69
2022/08/01 01:38:23;;;;;;;6.90;4.50;;;18.00;99.90;;;;;;5028431;28;20057;-69
2022/08/01 01:40:51;;;;;;;6.53;4.80;;;18.10;99.90;;;;;;5031697;28;20045;-69
2022/08/01 01:43:18;;;;;;;6.32;5.35;;;18.00;99.90;;;;;;5039663;28;20422;-69
2022/08/01 01:45:46;;;;;;;5.65;5.15;;;18.10;99.90;;;;;;5029187;28;20426;-69
2022/08/01 01:48:19;;;;;;;6.78;5.30;;;18.10;99.90;;;;;;5036954;28;20045;-69
2022/08/01 01:50:47;;;;;;;5.55;4.50;;;18.00;99.90;;;;;;5035959;28;20045;-69
2022/08/01 01:53:17;;;;;;;5.93;4.90;;;18.00;99.90;;;;;;5022227;28;20483;-69
2022/08/01 01:55:46;;;;;;;6.75;4.43;;;18.00;99.90;;;;;;5030026;28;20132;-69
2022/08/01 01:58:13;;;;;;;5.28;4.38;;;18.00;99.90;;;;;;5030094;28;20064;-69
2022/08/01 02:00:41;;;;;;;5.97;5.03;;;18.10;99.90;;;;;;5031265;28;20057;-69
2022/08/01 02:03:09;;;;;;;4.70;4.30;;;18.10;99.90;;;;;;5032387;28;20099;-69
2022/08/01 02:05:37;;;;;;;4.75;4.18;;;18.10;99.90;;;;;;5022629;28;20080;-69
2022/08/01 02:08:04;;;;;;;5.90;3.78;;;18.10;99.90;;;;;;5055160;23;20147;-69
2022/08/01 02:10:31;;;;;;;4.63;3.08;;;18.10;99.90;;;;;;5080805;28;20135;-69
2022/08/01 02:13:03;;;;;;;4.65;2.75;;;18.10;99.90;;;;;;5084242;28;20131;-69
2022/08/01 02:15:29;;;;;;;;;;;18.10;99.90;;;;;;5085716;28;20047;-69
2022/08/01 02:17:56;;;;;;;4.97;2.38;;;18.10;99.90;;;;;;5087856;28;19916;-69
2022/08/01 02:20:22;;;;;;;4.35;2.13;;;17.90;99.90;;;;;;5089990;28;20381;-69
2022/08/01 02:22:56;;;;;;;5.20;2.33;;;17.90;99.90;;;;;;5091106;28;20040;-69
2022/08/01 02:25:24;;;;;;;6.10;2.58;;;17.90;99.90;;;;;;5091164;28;20040;-69
2022/08/01 02:28:01;;;;;;;4.80;2.55;;;17.90;99.90;;;;;;5082924;28;20528;-69
2022/08/01 02:30:31;;;;;;;4.53;2.42;;;17.90;99.90;;;;;;5088656;28;20122;-69
2022/08/01 02:33:06;;;;;;;4.78;2.15;;;17.80;99.90;;;;;;5094089;28;20046;-69
2022/08/01 02:35:37;;;;;;;5.28;2.78;;;17.80;99.90;;;;;;5091357;28;20103;-69
2022/08/01 02:38:06;;;;;;;6.72;2.35;;;17.80;99.90;;;;;;5088589;28;20126;-69
2022/08/01 02:40:33;;;;;;;4.97;2.78;;;17.80;99.90;;;;;;5091587;28;20050;-69
2022/08/01 02:43:02;;;;;;;5.75;2.47;;;17.80;99.90;;;;;;5091072;28;20048;-69
2022/08/01 02:45:29;;;;;;;4.03;1.98;;;17.80;99.90;;;;;;5091549;28;20085;-69
2022/08/01 02:48:00;;;;;;;6.55;2.38;;;17.80;99.90;;;;;;5091021;28;20044;-69
2022/08/01 02:50:28;;;;;;;6.97;2.53;;;17.80;99.90;;;;;;5078966;28;20088;-69
2022/08/01 02:52:55;;;;;;;5.38;2.88;;;17.80;99.90;;;;;;5080000;28;20032;-69
2022/08/01 02:55:20;;;;;;;4.93;2.30;;;17.70;99.90;;;;;;5102351;28;20132;-69
2022/08/01 02:57:47;;;;;;;4.88;2.22;;;17.70;99.90;;;;;;5074613;28;20151;-69
2022/08/01 03:00:15;;;;;;;7.65;2.20;;;17.70;99.90;;;;;;5105647;28;20043;-69
2022/08/01 03:02:43;;;;;;;3.97;2.10;;;17.70;99.90;;;;;;5082344;28;20469;-70
2022/08/01 03:05:11;;;;;;;3.78;2.00;;;17.70;99.90;;;;;;5093319;28;20044;-70
2022/08/01 03:07:38;;;;;;;6.93;2.13;;;17.70;99.90;;;;;;5088822;28;20576;-69
2022/08/01 03:10:05;;;;;;;6.10;2.42;;;17.60;99.90;;;;;;5077077;28;20048;-69
2022/08/01 03:12:33;;;;;;;7.78;2.20;;;17.60;99.90;;;;;;5093000;28;20039;-69
2022/08/01 03:15:02;;;;;;;6.32;2.42;;;17.60;99.90;;;;;;5076014;28;20043;-69
2022/08/01 03:17:28;;;;;;;4.20;2.55;;;17.50;99.90;;;;;;5091411;28;20040;-70
2022/08/01 03:19:57;;;;;;;6.85;2.20;;;17.50;99.90;;;;;;5078534;28;20120;-69
2022/08/01 03:22:25;;;;;;;6.07;2.20;;;17.50;99.90;;;;;;5086491;28;20118;-69
2022/08/01 03:24:53;;;;;;;8.60;2.58;;;17.50;99.90;;;;;;5090950;28;20066;-69
2022/08/01 03:27:24;;;;;;;4.55;2.00;;;17.50;99.90;;;;;;5074201;28;20056;-69
2022/08/01 03:29:50;;;;;;;6.03;2.80;;;17.50;99.90;;;;;;5073852;28;20041;-69
2022/08/01 03:32:19;;;;;;;4.55;1.92;;;17.50;99.90;;;;;;5073974;28;20132;-69
2022/08/01 03:34:46;;;;;;;4.55;2.15;;;17.50;99.90;;;;;;5088117;28;20036;-69
2022/08/01 03:37:19;;;;;;;7.32;2.50;;;17.50;99.90;;;;;;5093633;28;20044;-69
2022/08/01 03:40:04;;;;;;;5.32;1.98;;;17.50;99.90;;;;;;5074865;28;20048;-69
2022/08/01 03:42:41;;;;;;;6.63;2.70;;;17.40;99.90;;;;;;5080623;28;20355;-69
2022/08/01 03:45:10;;;;;;;8.60;2.78;;;17.40;99.90;;;;;;5092874;28;20047;-69
2022/08/01 03:47:36;;;;;;;7.40;2.90;;;17.40;99.90;;;;;;5084672;28;20395;-69
2022/08/01 03:50:05;;;;;;;12.10;3.30;;;17.30;99.90;;;;;;5073559;28;20119;-70
2022/08/01 03:52:33;;;;;;;9.32;3.22;;;17.30;99.90;;;;;;5089591;28;20513;-69
2022/08/01 03:55:04;;;;;;;10.70;3.38;;;17.30;99.90;;;;;;5093206;28;20545;-69
2022/08/01 03:57:30;;;;;;;;;;;17.30;99.90;;;;;;5093673;28;20090;-69
2022/08/01 03:59:58;;;;;;;9.88;3.55;;;17.20;99.90;;;;;;5091272;28;19924;-69
2022/08/01 04:02:26;;;;;;;8.32;3.47;;;17.10;99.90;;;;;;5082923;28;20074;-69
2022/08/01 04:04:52;;;;;;;7.40;3.33;;;17.00;99.90;;;;;;5093552;28;20075;-69
2022/08/01 04:07:26;;;;;;;6.80;2.83;;;17.00;99.90;;;;;;5077122;28;20095;-69
2022/08/01 04:09:52;;;;;;;13.43;4.03;;;16.90;99.90;;;;;;5075499;28;20037;-69
2022/08/01 04:12:18;;;;;;;12.52;3.58;;;16.90;99.90;;;;;;5071707;28;20062;-69
2022/08/01 04:14:43;;;;;;;9.60;3.50;;;16.90;99.90;;;;;;5084372;28;20044;-69
2022/08/01 04:17:09;;;;;;;9.57;3.40;;;16.90;99.90;;;;;;5083971;28;20043;-69
2022/08/01 04:19:35;;;;;;;9.63;3.45;;;16.90;99.90;;;;;;5074463;28;20040;-69
2022/08/01 04:22:02;;;;;;;9.25;3.25;;;17.00;99.90;;;;;;5073090;28;20093;-69
2022/08/01 04:24:30;;;;;;;9.13;3.67;;;17.10;99.90;;;;;;5089267;28;20043;-69
2022/08/01 04:26:58;;;;;;;8.10;2.97;;;17.10;99.90;;;;;;5077924;28;20535;-69
2022/08/01 04:29:24;;;;;;;7.90;2.97;;;17.20;99.90;;;;;;5071187;28;20040;-69
2022/08/01 04:31:54;;;;;;;10.52;3.55;;;17.30;99.90;;;;;;5077893;28;20052;-69
2022/08/01 04:34:22;;;;;;;6.13;3.00;;;17.30;99.90;;;;;;5089479;28;20482;-69
2022/08/01 04:36:49;;;;;;;9.45;3.88;;;17.20;99.90;;;;;;5088858;28;20081;-69
2022/08/01 04:39:17;;;;;;;9.35;3.17;;;17.20;99.90;;;;;;5090297;28;20507;-69
2022/08/01 04:41:46;;;;;;;9.50;2.85;;;17.20;99.90;;;;;;5088522;28;20056;-69
2022/08/01 04:44:13;;;;;;;11.10;3.30;;;17.20;99.90;;;;;;5091814;28;20055;-69
2022/08/01 04:46:39;;;;;;;9.88;2.80;;;17.20;99.90;;;;;;5091759;28;20075;-69
2022/08/01 04:49:08;;;;;;;7.90;2.97;;;17.00;99.90;;;;;;5080170;28;20048;-69
2022/08/01 04:51:34;;;;;;;12.50;3.40;;;16.90;99.90;;;;;;5054292;28;20383;-69
2022/08/01 04:54:00;;;;;;;11.10;3.30;;;16.90;99.90;;;;;;5083886;28;20044;-69
2022/08/01 04:56:26;;;;;;;9.45;3.25;;;16.90;99.90;;;;;;5071267;28;20036;-69
2022/08/01 04:59:39;;;;;;;11.00;3.53;;;16.90;99.90;;;;;;5074515;28;20408;-69
2022/08/01 05:01:38;;;;;;;9.82;3.45;;;16.90;99.90;;;;;;5088992;28;20044;-68
2022/08/01 05:04:03;;;;;;;12.70;3.70;;;16.90;99.90;;;;;;5089792;28;20047;-68
2022/08/01 05:06:29;;;;;;;11.52;3.45;;;16.90;99.90;;;;;;5089493;28;20048;-68
2022/08/01 05:08:55;;;;;;;12.90;3.67;;;16.90;99.90;;;;;;5081838;28;20043;-68
2022/08/01 05:11:21;;;;;;;13.25;3.50;;;17.00;99.90;;;;;;5072360;28;20040;-68
2022/08/01 05:13:47;;;;;;;12.07;3.30;;;17.00;99.90;;;;;;5084165;28;20493;-68
2022/08/01 05:16:13;;;;;;;12.73;3.45;;;17.00;99.90;;;;;;5078445;28;20035;-68
2022/08/01 05:18:38;;;;;;;13.38;3.20;;;17.00;99.90;;;;;;5086081;28;20093;-68
2022/08/01 05:21:04;;;;;;;11.00;3.28;;;17.00;99.90;;;;;;5085141;28;20151;-68
2022/08/01 05:23:30;;;;;;;8.73;2.90;;;17.00;99.90;;;;;;5088912;28;20473;-68
2022/08/01 05:25:55;;;;;;;7.97;3.40;;;17.10;99.90;;;;;;5078781;28;20036;-69
2022/08/01 05:28:21;;;;;;;8.43;3.15;;;17.10;99.90;;;;;;5088271;28;20040;-69
2022/08/01 05:30:46;;;;;;;15.75;3.60;;;17.20;99.90;;;;;;5091101;28;20032;-69
2022/08/01 05:33:12;;;;;;;8.55;2.88;;;17.20;99.90;;;;;;5084944;28;20040;-69
2022/08/01 05:35:37;;;;;;;9.90;2.80;;;17.20;99.90;;;;;;5091010;28;20160;-69
2022/08/01 05:38:03;;;;;;;12.52;3.55;;;17.20;99.90;;;;;;5107362;28;20040;-69
2022/08/01 05:40:29;;;;;;;10.82;2.92;;;17.10;99.90;;;;;;5107499;28;20048;-69
2022/08/01 05:42:54;;;;;;;10.80;3.47;;;17.20;99.90;;;;;;5082855;28;20105;-69
2022/08/01 05:45:20;;;;;;;11.73;3.35;;;17.20;99.90;;;;;;5089000;28;20079;-69
2022/08/01 05:47:45;;;;;;;14.50;3.50;;;17.20;99.90;;;;;;5070780;28;20504;-69
2022/08/01 05:50:11;;;;;;;15.15;3.33;;;17.20;99.90;;;;;;5079726;28;20585;-69
2022/08/01 05:52:37;;;;;;;12.90;3.45;;;17.30;99.90;;;;;;5074759;28;20373;-69
2022/08/01 05:55:03;;;;;;;13.00;2.97;;;17.30;99.90;;;;;;5087866;28;20476;-69
2022/08/01 05:57:29;;;;;;;14.52;3.53;;;17.30;99.90;;;;;;5088076;28;20036;-69
2022/08/01 05:59:54;;;;;;;11.63;3.10;;;17.30;99.90;;;;;;5067227;28;20036;-69
2022/08/01 06:02:20;;;;;;;15.45;3.53;;;17.30;99.90;;;;;;5088508;28;20046;-69
2022/08/01 06:04:45;;;;;;;13.07;3.33;;;17.30;99.90;;;;;;5091397;28;20044;-69
2022/08/01 06:07:11;;;;;;;13.20;3.55;;;17.40;99.90;;;;;;5089604;28;20044;-69
2022/08/01 06:09:36;;;;;;;10.13;3.17;;;17.40;99.90;;;;;;5079612;28;20055;-69
2022/08/01 06:12:03;;;;;;;11.18;3.38;;;17.40;99.90;;;;;;5090491;28;20044;-69
2022/08/01 06:14:28;;;;;;;9.32;3.00;;;17.50;99.90;;;;;;5089816;28;20073;-69
2022/08/01 06:16:54;;;;;;;11.23;2.72;;;17.40;99.90;;;;;;5084037;28;20044;-69
2022/08/01 06:19:19;;;;;;;12.30;3.20;;;17.40;99.90;;;;;;5076049;28;20106;-69
2022/08/01 06:21:45;;;;;;;9.23;3.30;;;17.40;99.90;;;;;;5071168;28;20036;-69
2022/08/01 06:24:11;;;;;;;11.73;3.40;;;17.50;99.90;;;;;;5085474;28;20213;-69
2022/08/01 06:26:36;;;;;;;11.00;3.25;;;17.50;99.90;;;;;;5070823;28;20058;-69
2022/08/01 06:29:02;;;;;;;10.68;2.75;;;17.50;99.90;;;;;;5091256;28;20061;-69
2022/08/01 06:31:28;;;;;;;14.20;3.45;;;17.60;99.90;;;;;;5089530;28;20386;-69
2022/08/01 06:33:53;;;;;;;12.55;3.20;;;17.60;99.90;;;;;;5090680;28;20044;-69
2022/08/01 06:36:19;;;;;;;14.27;3.35;;;17.70;99.90;;;;;;5105484;28;20080;-69
2022/08/01 06:38:44;;;;;;;16.75;4.10;;;17.70;99.90;;;;;;5081872;28;20079;-69
2022/08/01 06:41:10;;;;;;;11.32;2.92;;;17.70;99.90;;;;;;5086056;28;20421;-69
2022/08/01 06:43:35;;;;;;;13.75;3.30;;;17.80;99.90;;;;;;5087923;28;20108;-69
2022/08/01 06:46:01;;;;;;;11.10;3.13;;;17.80;99.90;;;;;;5089662;28;20036;-69
2022/08/01 06:48:27;;;;;;;17.35;4.00;;;17.80;99.90;;;;;;5086037;28;20362;-69
2022/08/01 06:51:07;;;;;;;13.90;3.38;;;17.80;99.90;;;;;;5082173;28;20036;-69
2022/08/01 06:53:36;;;;;;;14.93;3.20;;;17.90;99.90;;;;;;5071108;28;20426;-69
2022/08/01 06:56:03;;;;;;;14.35;4.07;;;17.90;99.90;;;;;;5085019;28;20040;-69
2022/08/01 06:58:28;;;;;;;12.90;3.10;;;17.90;99.90;;;;;;5083449;28;20076;-69
2022/08/01 07:00:54;;;;;;;16.08;3.80;;;18.00;99.90;;;;;;5082097;28;20121;-69
2022/08/01 07:03:19;;;;;;;17.75;3.53;;;18.00;99.90;;;;;;5089744;28;20055;-69
2022/08/01 07:05:45;;;;;;;12.02;2.92;;;18.00;99.90;;;;;;5089825;28;20097;-68
2022/08/01 07:08:11;;;;;;;14.05;3.53;;;18.00;99.90;;;;;;5088103;28;20059;-71
2022/08/01 07:10:36;;;;;;;11.27;3.20;;;18.10;99.90;;;;;;5089014;28;20677;-69
2022/08/01 07:13:02;;;;;;;12.57;3.10;;;18.10;99.90;;;;;;5081230;28;20048;-70
2022/08/01 07:15:27;;;;;;;12.00;4.13;;;18.10;99.90;;;;;;5086669;28;20040;-70
2022/08/01 07:17:53;;;;;;;12.00;3.20;;;18.00;99.90;;;;;;5075238;28;20032;-70
2022/08/01 07:20:19;;;;;;;16.13;3.42;;;18.10;99.90;;;;;;5093353;28;20036;-70
2022/08/01 07:22:44;;;;;;;15.32;3.22;;;18.10;99.90;;;;;;5084631;28;20036;-70
2022/08/01 07:25:10;;;;;;;15.02;3.20;;;18.10;99.90;;;;;;5092519;28;20036;-70
2022/08/01 07:27:37;;;;;;;18.77;3.70;;;18.10;99.90;;;;;;5074630;28;20714;-70
2022/08/01 07:30:04;;;;;;;11.65;2.83;;;18.00;99.90;;;;;;5086805;28;20037;-69
2022/08/01 07:32:29;;;;;;;11.38;3.20;;;18.10;99.90;;;;;;5092552;28;20044;-70
2022/08/01 07:34:56;;;;;;;10.80;2.95;;;18.20;99.90;;;;;;5093202;28;20108;-69
2022/08/01 07:37:22;;;;;;;14.82;2.97;;;18.30;99.90;;;;;;5091908;28;20533;-69
2022/08/01 07:39:47;;;;;;;10.00;2.50;;;18.50;99.90;;;;;;5092443;28;20050;-69
2022/08/01 07:42:13;;;;;;;13.05;3.15;;;18.60;99.90;;;;;;5093466;28;20126;-69
2022/08/01 07:44:39;;;;;;;10.32;2.50;;;18.80;99.90;;;;;;5092618;28;20093;-69
2022/08/01 07:47:05;;;;;;;11.63;2.78;;;18.90;99.90;;;;;;5071589;28;20049;-70
2022/08/01 07:49:31;;;;;;;13.23;2.97;;;19.10;99.90;;;;;;5078496;28;20047;-69
2022/08/01 07:51:57;;;;;;;11.00;2.90;;;19.20;99.90;;;;;;5070658;28;20116;-69
2022/08/01 07:54:23;;;;;;;9.98;2.45;;;19.30;99.90;;;;;;5100646;28;20116;-69
2022/08/01 07:56:50;;;;;;;12.80;3.40;;;19.50;99.90;;;;;;5072364;28;20119;-69
2022/08/01 07:59:15;;;;;;;12.27;3.15;;;19.80;99.90;;;;;;5092546;28;20048;-69
2022/08/01 08:01:41;;;;;;;12.43;2.75;;;20.00;99.90;;;;;;5090319;28;20044;-69
2022/08/01 08:04:07;;;;;;;15.18;2.53;;;20.20;99.90;;;;;;5093271;28;20165;-70
2022/08/01 08:06:32;;;;;;;8.18;2.38;;;20.80;99.90;;;;;;5088638;28;20486;-70
2022/08/01 08:08:58;;;;;;;10.60;2.72;;;21.40;99.90;;;;;;5078702;28;20049;-70
2022/08/01 08:11:24;;;;;;;9.25;2.50;;;21.50;99.90;;;;;;5064870;28;20036;-70
2022/08/01 08:13:49;;;;;;;14.38;2.92;;;21.40;99.90;;;;;;5084590;28;20040;-71
2022/08/01 08:16:15;;;;;;;12.63;2.80;;;21.60;99.90;;;;;;5088869;28;20036;-70
2022/08/01 08:18:40;;;;;;;10.85;2.55;;;21.60;99.90;;;;;;5087658;28;20494;-70
2022/08/01 08:21:06;;;;;;;11.50;2.38;;;21.30;99.90;;;;;;5081079;28;20676;-70
2022/08/01 08:26:15;;;;;;;9.75;2.35;;;21.00;99.90;;;;;;5088426;28;20179;-70
2022/08/01 08:28:41;;;;;;;11.85;2.50;;;20.60;99.90;;;;;;5088663;28;20036;-71
2022/08/01 08:31:07;;;;;;;14.02;2.97;;;20.40;99.90;;;;;;5079666;28;20059;-71
2022/08/01 08:33:33;;;;;;;10.00;2.50;;;20.50;99.90;;;;;;5071075;28;20036;-70
2022/08/01 08:35:59;;;;;;;9.27;1.90;;;20.60;99.90;;;;;;5079190;28;20035;-70
2022/08/01 08:38:26;;;;;;;11.82;2.67;;;20.50;99.90;;;;;;5087656;28;20036;-71
2022/08/01 08:40:52;;;;;;;6.25;2.45;;;20.50;99.90;;;;;;5085128;28;20048;-72
2022/08/01 08:43:18;;;;;;;8.68;2.38;;;20.30;99.90;;;;;;5081492;28;20048;-71
2022/08/01 08:45:45;;;;;;;7.90;2.30;;;20.30;99.90;;;;;;5081428;28;20080;-71
2022/08/01 08:48:12;;;;;;;11.75;2.50;;;20.10;99.90;;;;;;5083270;28;20052;-71
2022/08/01 08:50:38;;;;;;;10.85;2.75;;;19.90;99.90;;;;;;5083463;28;20044;-70
2022/08/01 08:53:04;;;;;;;11.57;2.50;;;20.50;99.90;;;;;;5079873;28;20044;-70
2022/08/01 08:55:30;;;;;;;15.13;3.00;;;20.50;99.90;;;;;;5078884;28;20036;-70
2022/08/01 08:57:57;;;;;;;10.80;2.20;;;20.20;99.90;;;;;;5078777;28;20024;-70
2022/08/01 09:00:23;;;;;;;11.55;2.50;;;20.40;99.90;;;;;;5079101;28;20071;-71
2022/08/01 09:02:49;;;;;;;7.43;2.00;;;20.70;99.90;;;;;;5076876;28;20101;-72
2022/08/01 09:05:14;;;;;;;8.25;2.10;;;20.60;99.90;;;;;;5084645;28;20032;-72
2022/08/01 09:07:40;;;;;;;11.30;2.40;;;20.90;99.90;;;;;;5088925;28;20064;-71
2022/08/01 09:10:07;;;;;;;7.32;2.08;;;20.90;99.90;;;;;;5078946;28;20042;-71
2022/08/01 09:12:33;;;;;;;7.55;1.77;;;20.90;99.90;;;;;;5076733;28;20077;-72
2022/08/01 09:14:58;;;;;;;12.30;2.40;;;21.30;99.90;;;;;;5084111;28;20045;-71
2022/08/01 09:17:24;;;;;;;7.70;1.70;;;21.30;99.90;;;;;;5080573;28;20032;-71
2022/08/01 09:19:55;;;;;;;8.52;2.17;;;21.00;99.70;;;;;;5087792;28;20121;-72
2022/08/01 09:22:23;;;;;;;6.38;1.90;;;21.00;99.90;;;;;;5076837;28;20066;-71
2022/08/01 09:25:06;;;;;;;6.63;1.58;;;21.30;99.90;;;;;;5071529;28;20516;-72
2022/08/01 09:27:33;;;;;;;9.88;2.10;;;21.30;99.90;;;;;;5070530;28;20378;-72
2022/08/01 09:30:16;;;;;;;10.65;2.17;;;21.30;99.90;;;;;;5069885;28;20496;-72
2022/08/01 09:32:55;;;;;;;9.55;1.90;;;21.60;99.90;;;;;;5090103;28;20040;-72
2022/08/01 09:35:25;;;;;;;7.43;1.90;;;21.70;99.90;;;;;;5091549;28;20028;-72
2022/08/01 09:37:50;;;;;;;6.60;1.63;;;21.70;99.90;;;;;;5088782;28;20105;-72
2022/08/01 09:40:16;;;;;;;5.63;1.75;;;21.60;99.10;;;;;;5091509;28;20032;-72
2022/08/01 09:42:42;;;;;;;8.80;1.65;;;21.80;99.70;;;;;;5090244;28;20047;-72
2022/08/01 09:45:07;;;;;;;6.75;1.60;;;21.70;99.00;;;;;;5091477;28;20043;-72
2022/08/01 09:47:38;;;;;;;6.63;1.95;;;21.90;99.90;;;;;;5083811;28;20044;-72
2022/08/01 09:50:05;;;;;;;8.18;2.35;;;21.90;98.60;;;;;;5089828;28;20146;-72
2022/08/01 09:52:30;;;;;;;6.90;2.00;;;21.80;97.00;;;;;;5090164;28;20386;-72
2022/08/01 09:55:05;;;;;;;11.68;2.58;;;21.50;98.20;;;;;;5090279;28;20043;-72
2022/08/01 09:57:30;;;;;;;7.53;2.03;;;21.70;99.30;;;;;;5088973;28;20039;-72
2022/08/01 09:59:58;;;;;;;7.85;1.90;;;21.60;96.30;;;;;;5091495;28;20386;-72
2022/08/01 10:02:33;;;;;;;7.15;1.67;;;21.80;98.70;;;;;;5090052;28;20043;-72
2022/08/01 10:05:00;;;;;;;6.65;1.50;;;22.10;98.60;;;;;;5091184;28;20039;-72
2022/08/01 10:07:25;;;;;;;5.15;1.60;;;22.30;98.80;;;;;;5091400;28;20064;-72
2022/08/01 10:09:51;;;;;;;5.80;1.75;;;22.50;96.40;;;;;;5089786;28;20202;-72
2022/08/01 10:12:19;;;;;;;7.18;1.90;;;22.40;96.90;;;;;;5090136;28;20044;-72
2022/08/01 10:14:49;;;;;;;4.32;1.60;;;22.60;98.10;;;;;;5063682;28;20032;-72
2022/08/01 10:17:16;;;;;;;4.25;1.60;;;22.30;95.50;;;;;;5069714;28;20048;-72
2022/08/01 10:19:43;;;;;;;8.18;1.98;;;22.30;94.50;;;;;;5087734;28;20040;-72
2022/08/01 10:22:10;;;;;;;5.30;1.58;;;22.40;95.20;;;;;;5091019;28;20054;-72
2022/08/01 10:24:39;;;;;;;9.32;1.50;;;22.40;95.20;;;;;;5088655;28;20386;-72
2022/08/01 10:27:08;;;;;;;6.22;1.77;;;22.60;96.20;;;;;;5089988;28;20040;-72
2022/08/01 10:29:56;;;;;;;7.75;2.20;;;22.10;95.80;;;;;;5089636;28;20428;-72
2022/08/01 10:32:22;;;;;;;6.18;2.20;;;21.90;94.60;;;;;;5089881;28;20040;-72
2022/08/01 10:34:49;;;;;;;5.93;1.50;;;21.90;95.70;;;;;;5090942;28;20043;-72
2022/08/01 10:37:16;;;;;;;5.53;1.38;;;22.20;97.40;;;;;;5086722;28;20040;-72
2022/08/01 10:39:43;;;;;;;5.85;1.77;;;22.40;93.80;;;;;;5085737;28;20629;-74
2022/08/01 10:42:10;;;;;;;4.78;1.42;;;22.60;95.90;;;;;;5083071;28;20536;-72
2022/08/01 10:44:38;;;;;;;6.72;1.33;;;22.50;94.30;;;;;;5080243;28;20146;-72
2022/08/01 10:47:10;;;;;;;5.18;1.50;;;22.40;92.30;;;;;;5077279;28;20040;-72
2022/08/01 10:49:58;;;;;;;6.00;1.45;;;22.80;92.30;;;;;;5069806;28;20048;-72
2022/08/01 10:52:24;;;;;;;7.30;1.50;;;23.00;95.00;;;;;;5064071;28;20035;-72
2022/08/01 10:55:09;;;;;;;6.97;1.60;;;23.30;95.50;;;;;;5094466;28;20036;-72
2022/08/01 10:57:46;;;;;;;7.65;1.60;;;23.10;93.90;;;;;;5085118;28;20524;-72
2022/08/01 11:00:20;;;;;;;6.43;1.33;;;22.90;94.90;;;;;;5107245;28;20551;-73
2022/08/01 11:03:03;;;;;;;4.05;1.20;;;23.10;94.50;;;;;;5084002;28;20106;-73
2022/08/01 11:05:34;;;;;;;6.85;1.60;;;23.20;94.10;;;;;;5094441;28;20048;-72
2022/08/01 11:08:10;;;;;;;5.03;1.23;;;23.30;94.00;;;;;;5090594;28;20067;-72
2022/08/01 11:10:42;;;;;;;5.63;1.52;;;23.00;93.90;;;;;;5092346;28;20505;-72
2022/08/01 11:13:08;;;;;;;5.65;1.40;;;22.70;94.20;;;;;;5085236;28;20044;-72
2022/08/01 11:15:34;;;;;;;4.45;1.30;;;22.90;94.10;;;;;;5078455;28;20032;-72
2022/08/01 11:18:03;;;;;;;7.72;1.50;;;22.90;94.20;;;;;;5090751;28;20114;-72
2022/08/01 11:20:35;;;;;;;5.60;1.73;;;22.90;93.30;;;;;;5083459;28;20055;-72
2022/08/01 11:23:01;;;;;;;7.05;1.60;;;22.90;93.00;;;;;;5090438;28;20057;-72
2022/08/01 11:25:48;;;;;;;4.82;1.52;;;23.00;94.20;;;;;;5075826;28;20036;-72
2022/08/01 11:28:13;;;;;;;4.28;1.25;;;23.10;94.30;;;;;;5101309;28;20052;-72
2022/08/01 11:30:45;;;;;;;4.68;1.27;;;23.10;94.00;;;;;;5072101;28;20311;-72
2022/08/01 11:33:12;;;;;;;4.45;1.20;;;23.20;94.00;;;;;;5083069;28;20076;-72
2022/08/01 11:36:10;;;;;;;5.70;1.50;;;22.50;91.60;;;;;;5084847;28;20040;-72
2022/08/01 11:38:36;;;;;;;4.43;1.30;;;22.40;91.30;;;;;;5084556;28;20090;-72
2022/08/01 11:41:20;;;;;;;4.53;1.10;;;22.20;91.90;;;;;;5083665;28;20040;-72
2022/08/01 11:44:06;;;;;;;4.50;1.20;;;22.40;93.20;;;;;;5093801;28;20087;-72
2022/08/01 11:46:56;;;;;;;3.78;1.50;;;22.60;93.50;;;;;;5083438;28;20043;-72
2022/08/01 11:49:25;;;;;;;5.95;1.40;;;22.40;91.60;;;;;;5088044;28;20036;-72
2022/08/01 11:52:15;;;;;;;5.30;1.95;;;22.20;91.60;;;;;;5084766;28;20051;-72
2022/08/01 11:54:49;;;;;;;6.13;1.60;;;22.30;92.20;;;;;;5084236;28;20039;-72
2022/08/01 11:57:33;;;;;;;5.82;1.35;;;22.40;91.10;;;;;;5084910;28;20110;-72
2022/08/01 12:00:01;;;;;;;6.78;1.27;;;22.30;92.10;;;;;;5077346;28;20040;-72
2022/08/01 12:02:28;;;;;;;7.30;1.25;;;22.70;94.10;;;;;;5080626;28;20048;-72
2022/08/01 12:05:02;;;;;;;5.35;1.30;;;22.70;92.10;;;;;;5084058;28;20040;-72
2022/08/01 12:07:30;;;;;;;4.15;1.15;;;22.50;92.10;;;;;;5089827;28;20047;-71
2022/08/01 12:10:10;;;;;;;6.47;1.38;;;22.30;93.30;;;;;;5090273;28;20343;-72
2022/08/01 12:12:42;;;;;;;4.13;1.05;;;22.20;92.20;;;;;;5091780;28;20094;-72
2022/08/01 12:15:09;;;;;;;5.13;1.77;;;22.10;92.30;;;;;;5087252;28;20036;-72
2022/08/01 12:17:40;;;;;;;5.88;1.52;;;22.20;90.80;;;;;;5071344;28;20078;-72
2022/08/01 12:20:09;;;;;;;5.60;1.58;;;22.40;92.80;;;;;;5075082;28;20142;-72
2022/08/01 12:22:35;;;;;;;5.65;2.05;;;22.60;93.00;;;;;;5089847;28;20032;-72
2022/08/01 12:25:11;;;;;;;5.82;1.13;;;22.60;92.70;;;;;;5091030;28;20059;-72
2022/08/01 12:27:39;;;;;;;3.28;0.93;;;21.90;88.00;;;;;;5088072;28;20056;-72
2022/08/01 12:30:07;;;;;;;5.30;1.10;;;22.00;91.80;;;;;;5092827;28;20039;-72
2022/08/01 12:32:36;;;;;;;8.02;1.50;;;22.30;92.80;;;;;;5088870;28;20032;-72
2022/08/01 12:35:10;;;;;;;6.38;1.52;;;22.60;92.40;;;;;;5083142;28;20125;-72
2022/08/01 12:37:37;;;;;;;3.40;1.05;;;22.50;91.00;;;;;;5092519;28;20660;-72
2022/08/01 12:40:11;;;;;;;4.93;1.20;;;22.50;92.50;;;;;;5090417;28;20040;-72
2022/08/01 12:42:41;;;;;;;5.57;1.50;;;22.60;92.70;;;;;;5089171;28;20044;-72
2022/08/01 12:45:12;;;;;;;3.25;1.30;;;22.80;92.80;;;;;;5080985;28;21512;-72
2022/08/01 12:47:39;;;;;;;5.40;1.40;;;22.80;91.50;;;;;;5087230;28;20048;-72
2022/08/01 12:50:11;;;;;;;4.82;1.17;;;23.00;91.00;;;;;;5091337;28;20075;-72
2022/08/01 12:52:37;;;;;;;3.88;1.35;;;23.10;90.30;;;;;;5089640;28;20044;-72